createdAt,value
2023-01-01T00:00:19.152Z,11.72
2023-01-01T00:02:46.560Z,11.62
2023-01-01T00:05:13.615Z,11.58
2023-01-01T00:07:40.599Z,11.66
2023-01-01T00:10:27.925Z,11.73
2023-01-01T00:12:58.824Z,11.79
2023-01-01T00:15:27.542Z,11.91
2023-01-01T00:17:55.162Z,11.92
2023-01-01T00:20:22.463Z,11.89
2023-01-01T00:22:57.027Z,11.88
2023-01-01T00:25:25.036Z,11.92
2023-01-01T00:27:52.437Z,11.94
2023-01-01T00:30:19.777Z,11.84
2023-01-01T00:32:55.018Z,11.83
2023-01-01T00:35:26.035Z,11.95
2023-01-01T00:37:54.825Z,11.99
2023-01-01T00:40:22.134Z,11.95
2023-01-01T00:42:49.194Z,11.86
2023-01-01T00:45:21.374Z,11.82
2023-01-01T00:47:50.706Z,11.84
2023-01-01T00:50:18.306Z,11.88
2023-01-01T00:52:45.479Z,11.88
2023-01-01T00:55:12.712Z,11.81
2023-01-01T00:57:39.906Z,11.77
2023-01-01T01:00:08.637Z,11.75
2023-01-01T01:02:35.943Z,11.78
2023-01-01T01:05:04.888Z,11.66
2023-01-01T01:07:37.023Z,11.70
2023-01-01T01:10:04.855Z,11.74
2023-01-01T01:12:34.296Z,11.79
2023-01-01T01:15:02.045Z,11.71
2023-01-01T01:17:29.726Z,11.86
2023-01-01T01:19:56.870Z,11.85
2023-01-01T01:22:28.362Z,11.91
2023-01-01T01:24:57.392Z,11.79
2023-01-01T01:27:24.792Z,11.79
2023-01-01T01:29:51.959Z,11.76
2023-01-01T01:32:19.265Z,11.66
2023-01-01T01:34:46.494Z,11.69
2023-01-01T01:37:13.868Z,11.68
2023-01-01T01:39:40.941Z,11.67
2023-01-01T01:42:08.324Z,11.69
2023-01-01T01:44:50.343Z,11.74
2023-01-01T01:47:42.050Z,11.78
2023-01-01T01:50:29.818Z,11.92
2023-01-01T01:53:06.140Z,11.90
2023-01-01T01:55:38.099Z,11.98
2023-01-01T01:58:09.607Z,11.92
2023-01-01T02:00:43.047Z,11.87
2023-01-01T02:03:24.442Z,12.01
2023-01-01T02:05:53.227Z,11.95
2023-01-01T02:08:21.400Z,11.92
2023-01-01T02:10:48.848Z,11.85
2023-01-01T02:13:16.541Z,11.77
2023-01-01T02:15:53.381Z,11.70
2023-01-01T02:18:28.704Z,11.72
2023-01-01T02:21:07.718Z,11.79
2023-01-01T02:23:53.282Z,11.63
2023-01-01T02:26:47.582Z,11.76
2023-01-01T02:29:29.358Z,11.59
2023-01-01T02:32:10.587Z,11.53
2023-01-01T02:34:45.444Z,11.60
2023-01-01T02:37:16.494Z,11.55
2023-01-01T02:39:54.683Z,11.63
2023-01-01T02:42:23.858Z,11.52
2023-01-01T02:44:55.046Z,11.33
2023-01-01T02:47:22.344Z,11.25
2023-01-01T02:50:10.266Z,11.21
2023-01-01T02:52:57.252Z,11.10
2023-01-01T02:55:49.245Z,11.27
2023-01-01T02:58:46.026Z,11.19
2023-01-01T03:01:40.516Z,11.16
2023-01-01T03:04:23.508Z,11.11
2023-01-01T03:07:43.237Z,11.14
2023-01-01T03:10:16.060Z,11.14
2023-01-01T03:13:12.448Z,10.99
2023-01-01T03:16:05.467Z,10.97
2023-01-01T03:18:44.848Z,10.98
2023-01-01T03:23:50.240Z,10.98
2023-01-01T03:26:19.421Z,11.03
2023-01-01T03:28:56.136Z,10.96
2023-01-01T03:31:26.370Z,11.12
2023-01-01T03:34:03.319Z,11.13
2023-01-01T03:36:38.288Z,11.05
2023-01-01T03:39:34.246Z,10.97
2023-01-01T03:42:35.955Z,10.94
2023-01-01T03:45:17.704Z,10.96
2023-01-01T03:47:44.843Z,10.95
2023-01-01T03:50:13.436Z,10.94
2023-01-01T03:53:12.965Z,10.89
2023-01-01T03:56:22.175Z,10.88
2023-01-01T03:59:01.552Z,10.96
2023-01-01T04:01:37.680Z,10.93
2023-01-01T04:04:06.851Z,11.02
2023-01-01T04:06:34.487Z,10.97
2023-01-01T04:09:03.710Z,10.90
2023-01-01T04:11:51.494Z,10.88
2023-01-01T04:14:51.013Z,10.96
2023-01-01T04:17:18.606Z,10.98
2023-01-01T04:19:51.508Z,10.85
2023-01-01T04:22:23.542Z,10.85
2023-01-01T04:24:50.974Z,11.04
2023-01-01T04:27:17.929Z,10.81
2023-01-01T04:29:45.013Z,10.82
2023-01-01T04:32:12.107Z,10.88
2023-01-01T04:34:39.262Z,10.85
2023-01-01T04:37:12.765Z,10.96
2023-01-01T04:39:40.864Z,10.93
2023-01-01T04:42:08.000Z,10.83
2023-01-01T04:44:35.106Z,10.81
2023-01-01T04:47:05.536Z,10.74
2023-01-01T04:49:32.592Z,10.77
2023-01-01T04:51:59.624Z,10.70
2023-01-01T04:54:26.845Z,10.77
2023-01-01T04:56:54.684Z,10.87
2023-01-01T04:59:21.685Z,10.80
2023-01-01T05:01:48.986Z,10.70
2023-01-01T05:04:17.154Z,10.58
2023-01-01T05:06:44.316Z,10.71
2023-01-01T05:09:12.320Z,10.79
2023-01-01T05:11:39.380Z,10.78
2023-01-01T05:14:07.318Z,10.68
2023-01-01T05:16:38.557Z,10.91
2023-01-01T05:19:07.959Z,11.08
2023-01-01T05:21:40.899Z,11.15
2023-01-01T05:24:10.265Z,11.11
2023-01-01T05:26:41.346Z,11.22
2023-01-01T05:29:15.611Z,11.22
2023-01-01T05:31:45.181Z,11.19
2023-01-01T05:34:12.586Z,11.03
2023-01-01T05:36:39.810Z,11.01
2023-01-01T05:39:12.624Z,10.96
2023-01-01T05:41:41.094Z,10.97
2023-01-01T05:44:09.815Z,10.92
2023-01-01T05:46:37.707Z,10.74
2023-01-01T05:49:05.197Z,10.74
2023-01-01T05:54:01.591Z,10.69
2023-01-01T05:56:28.968Z,10.64
2023-01-01T05:58:57.283Z,10.75
2023-01-01T06:01:33.336Z,10.74
2023-01-01T06:04:00.962Z,10.58
2023-01-01T06:06:31.084Z,10.68
2023-01-01T06:09:01.674Z,10.99
2023-01-01T06:11:30.314Z,10.88
2023-01-01T06:13:59.836Z,10.75
2023-01-01T06:16:28.803Z,10.76
2023-01-01T06:18:56.116Z,10.72
2023-01-01T06:21:26.544Z,10.75
2023-01-01T06:23:56.818Z,10.60
2023-01-01T06:26:28.002Z,10.62
2023-01-01T06:28:56.302Z,10.72
2023-01-01T06:31:23.848Z,10.69
2023-01-01T06:33:51.840Z,10.72
2023-01-01T06:36:22.024Z,10.76
2023-01-01T06:38:52.522Z,10.79
2023-01-01T06:41:23.419Z,10.69
2023-01-01T06:43:50.891Z,10.73
2023-01-01T06:46:24.895Z,10.80
2023-01-01T06:48:56.455Z,10.75
2023-01-01T06:51:26.843Z,10.73
2023-01-01T06:53:54.595Z,10.81
2023-01-01T06:56:22.026Z,10.71
2023-01-01T06:58:49.230Z,10.95
2023-01-01T07:01:22.366Z,10.96
2023-01-01T07:03:55.609Z,11.19
2023-01-01T07:06:23.920Z,10.93
2023-01-01T07:08:51.358Z,10.92
2023-01-01T07:11:18.951Z,10.74
2023-01-01T07:13:46.303Z,10.97
2023-01-01T07:16:13.817Z,11.13
2023-01-01T07:18:41.894Z,11.32
2023-01-01T07:21:30.943Z,11.25
2023-01-01T07:24:01.437Z,11.70
2023-01-01T07:26:30.356Z,11.69
2023-01-01T07:29:05.956Z,11.76
2023-01-01T07:31:38.981Z,11.99
2023-01-01T07:34:07.846Z,11.75
2023-01-01T07:36:34.946Z,11.49
2023-01-01T07:39:02.154Z,11.57
2023-01-01T07:41:29.215Z,11.40
2023-01-01T07:43:56.326Z,11.64
2023-01-01T07:46:23.458Z,11.79
2023-01-01T07:48:50.583Z,11.61
2023-01-01T07:51:17.745Z,11.65
2023-01-01T07:53:44.702Z,11.61
2023-01-01T07:56:11.817Z,11.58
2023-01-01T07:58:42.389Z,11.91
2023-01-01T08:01:14.962Z,12.12
2023-01-01T08:03:42.637Z,12.03
2023-01-01T08:06:13.887Z,11.97
2023-01-01T08:08:41.654Z,11.82
2023-01-01T08:11:09.036Z,11.91
2023-01-01T08:13:36.256Z,11.97
2023-01-01T08:16:03.721Z,12.22
2023-01-01T08:18:31.077Z,12.05
2023-01-01T08:20:58.158Z,12.16
2023-01-01T08:23:25.353Z,12.20
2023-01-01T08:25:52.433Z,12.24
2023-01-01T08:28:19.451Z,12.40
2023-01-01T08:30:46.832Z,12.30
2023-01-01T08:33:13.892Z,12.37
2023-01-01T08:35:42.723Z,12.31
2023-01-01T08:38:13.071Z,12.37
2023-01-01T08:40:40.420Z,12.47
2023-01-01T08:43:07.680Z,12.42
2023-01-01T08:45:35.302Z,12.44
2023-01-01T08:48:02.443Z,12.45
2023-01-01T08:50:29.520Z,12.44
2023-01-01T08:52:59.188Z,12.72
2023-01-01T08:55:26.332Z,12.66
2023-01-01T08:57:53.351Z,12.72
2023-01-01T09:00:20.644Z,12.61
2023-01-01T09:02:47.919Z,12.71
2023-01-01T09:05:15.482Z,12.79
2023-01-01T09:07:42.515Z,12.82
2023-01-01T09:10:09.772Z,12.79
2023-01-01T09:12:36.925Z,12.78
2023-01-01T09:15:04.444Z,12.79
2023-01-01T09:17:31.506Z,12.90
2023-01-01T09:19:58.535Z,13.00
2023-01-01T09:22:25.647Z,13.04
2023-01-01T09:24:52.781Z,13.18
2023-01-01T09:27:19.941Z,13.12
2023-01-01T09:29:46.987Z,13.15
2023-01-01T09:32:14.005Z,13.17
2023-01-01T09:34:41.115Z,13.22
2023-01-01T09:37:08.182Z,13.30
2023-01-01T09:39:35.248Z,13.38
2023-01-01T09:42:32.492Z,13.38
2023-01-01T09:45:23.811Z,13.53
2023-01-01T09:47:56.124Z,13.61
2023-01-01T09:50:35.455Z,13.79
2023-01-01T09:53:31.960Z,13.82
2023-01-01T09:56:04.468Z,13.97
2023-01-01T09:58:38.173Z,14.20
2023-01-01T10:01:40.214Z,14.26
2023-01-01T10:04:27.894Z,14.43
2023-01-01T10:07:38.990Z,14.45
2023-01-01T10:10:36.225Z,14.71
2023-01-01T10:13:30.871Z,14.76
2023-01-01T10:16:13.497Z,14.88
2023-01-01T10:18:42.928Z,14.91
2023-01-01T10:21:25.244Z,14.82
2023-01-01T10:24:05.437Z,14.87
2023-01-01T10:26:35.151Z,14.88
2023-01-01T10:29:16.123Z,15.04
2023-01-01T10:31:47.104Z,15.01
2023-01-01T10:34:32.503Z,15.03
2023-01-01T10:37:01.178Z,14.88
2023-01-01T10:39:29.182Z,14.94
2023-01-01T10:41:58.420Z,15.19
2023-01-01T10:44:34.734Z,15.07
2023-01-01T10:47:28.979Z,15.10
2023-01-01T10:49:57.293Z,15.11
2023-01-01T10:52:34.354Z,15.22
2023-01-01T10:55:02.215Z,15.13
2023-01-01T10:57:32.310Z,15.27
2023-01-01T11:00:28.756Z,15.32
2023-01-01T11:03:21.544Z,15.14
2023-01-01T11:06:05.214Z,15.08
2023-01-01T11:08:35.919Z,15.01
2023-01-01T11:11:04.002Z,14.99
2023-01-01T11:13:32.736Z,14.96
2023-01-01T11:16:00.419Z,14.88
2023-01-01T11:18:50.247Z,14.75
2023-01-01T11:21:44.671Z,14.67
2023-01-01T11:24:21.314Z,14.59
2023-01-01T11:26:54.543Z,14.52
2023-01-01T11:29:26.509Z,14.50
2023-01-01T11:31:54.059Z,14.54
2023-01-01T11:34:35.985Z,14.54
2023-01-01T11:37:36.186Z,14.53
2023-01-01T11:40:07.049Z,14.49
2023-01-01T11:42:37.209Z,14.45
2023-01-01T11:45:22.094Z,14.49
2023-01-01T11:47:56.988Z,14.50
2023-01-01T11:50:40.034Z,14.56
2023-01-01T11:53:42.212Z,14.57
2023-01-01T11:56:20.105Z,14.64
2023-01-01T11:58:58.910Z,14.70
2023-01-01T12:01:39.573Z,14.77
2023-01-01T12:04:22.316Z,14.83
2023-01-01T12:07:14.192Z,14.83
2023-01-01T12:09:58.378Z,14.84
2023-01-01T12:12:33.877Z,14.89
2023-01-01T12:15:19.159Z,14.83
2023-01-01T12:18:20.918Z,14.83
2023-01-01T12:21:05.583Z,14.77
2023-01-01T12:23:32.993Z,14.79
2023-01-01T12:27:02.869Z,14.73
2023-01-01T12:30:06.320Z,14.79
2023-01-01T12:33:07.845Z,14.67
2023-01-01T12:36:07.327Z,14.72
2023-01-01T12:38:52.494Z,14.68
2023-01-01T12:41:48.650Z,14.72
2023-01-01T12:44:42.539Z,14.77
2023-01-01T12:47:31.438Z,14.78
2023-01-01T12:50:38.612Z,14.75
2023-01-01T12:53:26.157Z,14.72
2023-01-01T12:56:22.548Z,14.79
2023-01-01T12:59:19.507Z,14.77
2023-01-01T13:01:47.539Z,14.68
2023-01-01T13:04:19.943Z,14.76
2023-01-01T13:07:04.493Z,14.73
2023-01-01T13:09:40.198Z,14.62
2023-01-01T13:12:07.359Z,14.60
2023-01-01T13:14:46.360Z,14.68
2023-01-01T13:17:26.002Z,14.66
2023-01-01T13:20:06.680Z,14.76
2023-01-01T13:22:33.864Z,14.71
2023-01-01T13:25:22.655Z,14.68
2023-01-01T13:28:03.575Z,14.71
2023-01-01T13:30:37.473Z,14.75
2023-01-01T13:33:29.631Z,14.67
2023-01-01T13:36:08.842Z,14.61
2023-01-01T13:38:55.698Z,14.62
2023-01-01T13:41:53.357Z,14.67
2023-01-01T13:44:23.272Z,14.67
2023-01-01T13:47:48.210Z,14.71
2023-01-01T13:50:44.339Z,14.71
2023-01-01T13:53:52.092Z,14.64
2023-01-01T13:56:31.241Z,14.65
2023-01-01T13:59:27.137Z,14.72
2023-01-01T14:02:35.870Z,14.70
2023-01-01T14:05:12.551Z,14.63
2023-01-01T14:07:53.686Z,14.67
2023-01-01T14:10:27.887Z,14.68
2023-01-01T14:13:16.902Z,14.66
2023-01-01T14:16:02.777Z,14.54
2023-01-01T14:18:39.622Z,14.53
2023-01-01T14:21:24.796Z,14.36
2023-01-01T14:23:59.547Z,14.32
2023-01-01T14:26:28.920Z,14.34
2023-01-01T14:29:00.138Z,14.37
2023-01-01T14:31:32.395Z,14.41
2023-01-01T14:33:59.753Z,14.27
2023-01-01T14:36:31.814Z,14.20
2023-01-01T14:39:00.967Z,14.22
2023-01-01T14:41:36.989Z,14.22
2023-01-01T14:44:19.360Z,14.23
2023-01-01T14:46:49.993Z,14.29
2023-01-01T14:49:30.174Z,14.21
2023-01-01T14:52:29.092Z,14.23
2023-01-01T14:54:59.692Z,14.13
2023-01-01T14:57:31.998Z,14.13
2023-01-01T14:59:59.454Z,14.25
2023-01-01T15:02:31.761Z,14.59
2023-01-01T15:05:10.226Z,14.69
2023-01-01T15:07:37.215Z,14.64
2023-01-01T15:10:04.597Z,14.65
2023-01-01T15:12:34.710Z,14.60
2023-01-01T15:15:02.115Z,14.51
2023-01-01T15:17:29.251Z,14.18
2023-01-01T15:20:22.455Z,13.99
2023-01-01T15:22:51.257Z,13.92
2023-01-01T15:25:19.735Z,13.86
2023-01-01T15:27:52.375Z,13.65
2023-01-01T15:30:31.896Z,13.49
2023-01-01T15:33:16.252Z,13.52
2023-01-01T15:35:52.385Z,13.27
2023-01-01T15:38:31.143Z,13.25
2023-01-01T15:40:58.449Z,13.30
2023-01-01T15:43:31.753Z,13.24
2023-01-01T15:46:20.214Z,13.18
2023-01-01T15:48:51.047Z,13.12
2023-01-01T15:51:24.466Z,13.03
2023-01-01T15:54:05.039Z,12.92
2023-01-01T15:56:39.600Z,12.82
2023-01-01T15:59:23.561Z,12.65
2023-01-01T16:01:51.662Z,12.63
2023-01-01T16:04:28.415Z,12.46
2023-01-01T16:06:58.575Z,12.29
2023-01-01T16:09:25.969Z,12.24
2023-01-01T16:11:55.935Z,12.31
2023-01-01T16:14:23.827Z,12.26
2023-01-01T16:16:57.452Z,12.21
2023-01-01T16:19:25.462Z,12.15
2023-01-01T16:21:52.579Z,12.01
2023-01-01T16:24:20.555Z,12.02
2023-01-01T16:26:48.526Z,11.95
2023-01-01T16:29:16.228Z,11.85
2023-01-01T16:31:44.155Z,11.87
2023-01-01T16:34:14.707Z,11.84
2023-01-01T16:36:43.565Z,11.79
2023-01-01T16:39:11.103Z,11.70
2023-01-01T16:41:42.518Z,11.62
2023-01-01T16:44:16.754Z,11.60
2023-01-01T16:46:44.447Z,11.61
2023-01-01T16:49:11.623Z,11.54
2023-01-01T16:51:43.465Z,11.53
2023-01-01T16:54:11.821Z,11.76
2023-01-01T16:56:38.801Z,11.60
2023-01-01T16:59:05.872Z,11.36
2023-01-01T17:01:33.272Z,11.49
2023-01-01T17:04:01.137Z,11.52
2023-01-01T17:06:28.356Z,11.44
2023-01-01T17:08:55.819Z,11.42
2023-01-01T17:11:25.501Z,11.27
2023-01-01T17:13:52.751Z,11.06
2023-01-01T17:16:26.952Z,11.01
2023-01-01T17:21:43.607Z,10.95
2023-01-01T17:24:10.682Z,10.88
2023-01-01T17:26:37.895Z,10.73
2023-01-01T17:31:44.983Z,10.84
2023-01-01T17:34:14.380Z,10.96
2023-01-01T17:36:43.969Z,10.91
2023-01-01T17:39:13.330Z,10.95
2023-01-01T17:41:41.924Z,10.96
2023-01-01T17:44:14.756Z,11.12
2023-01-01T17:46:44.860Z,11.17
2023-01-01T17:49:12.055Z,11.09
2023-01-01T17:51:39.447Z,11.34
2023-01-01T17:54:10.362Z,11.39
2023-01-01T17:56:37.469Z,11.25
2023-01-01T17:59:04.848Z,11.03
2023-01-01T18:01:35.717Z,11.07
2023-01-01T18:04:08.722Z,11.03
2023-01-01T18:06:44.914Z,10.99
2023-01-01T18:09:15.035Z,11.23
2023-01-01T18:11:46.670Z,10.95
2023-01-01T18:14:24.701Z,10.93
2023-01-01T18:16:52.090Z,11.18
2023-01-01T18:19:21.157Z,11.07
2023-01-01T18:21:54.089Z,10.95
2023-01-01T18:24:23.946Z,11.24
2023-01-01T18:26:57.109Z,11.34
2023-01-01T18:29:24.578Z,11.14
2023-01-01T18:31:52.007Z,11.01
2023-01-01T18:34:19.445Z,11.04
2023-01-01T18:36:48.892Z,10.97
2023-01-01T18:39:23.764Z,11.16
2023-01-01T18:42:05.608Z,10.88
2023-01-01T18:44:34.150Z,10.68
2023-01-01T18:47:06.944Z,10.80
2023-01-01T18:49:36.715Z,10.57
2023-01-01T18:52:16.271Z,10.79
2023-01-01T18:54:43.240Z,10.54
2023-01-01T18:57:28.958Z,10.64
2023-01-01T19:00:00.354Z,10.82
2023-01-01T19:02:49.612Z,10.28
2023-01-01T19:05:31.781Z,10.10
2023-01-01T19:08:04.724Z,10.32
2023-01-01T19:11:00.325Z,10.05
2023-01-01T19:13:35.297Z,9.90
2023-01-01T19:16:11.493Z,9.75
2023-01-01T19:18:44.888Z,9.73
2023-01-01T19:21:11.859Z,9.71
2023-01-01T19:23:58.857Z,9.72
2023-01-01T19:26:42.194Z,10.20
2023-01-01T19:29:22.089Z,10.64
2023-01-01T19:31:54.204Z,10.92
2023-01-01T19:34:22.327Z,10.83
2023-01-01T19:36:49.967Z,10.70
2023-01-01T19:39:17.630Z,10.65
2023-01-01T19:41:44.675Z,10.58
2023-01-01T19:44:11.898Z,10.78
2023-01-01T19:46:39.131Z,10.92
2023-01-01T19:49:06.159Z,11.00
2023-01-01T19:51:33.200Z,10.95
2023-01-01T19:54:00.260Z,10.88
2023-01-01T19:56:27.367Z,10.92
2023-01-01T19:58:54.446Z,10.97
2023-01-01T20:01:21.565Z,10.85
2023-01-01T20:03:55.193Z,10.70
2023-01-01T20:06:23.639Z,10.53
2023-01-01T20:08:50.803Z,10.46
2023-01-01T20:11:18.240Z,10.38
2023-01-01T20:13:45.803Z,10.24
2023-01-01T20:16:13.579Z,10.15
2023-01-01T20:18:40.928Z,10.01
2023-01-01T20:21:27.290Z,9.83
2023-01-01T20:23:55.831Z,9.50
2023-01-01T20:26:25.764Z,9.62
2023-01-01T20:29:11.943Z,9.49
2023-01-01T20:31:40.279Z,9.57
2023-01-01T20:34:07.579Z,9.76
2023-01-01T20:36:52.908Z,9.63
2023-01-01T20:39:21.494Z,9.55
2023-01-01T20:41:49.736Z,9.46
2023-01-01T20:44:16.910Z,9.38
2023-01-01T20:46:45.983Z,9.53
2023-01-01T20:49:12.987Z,9.61
2023-01-01T20:51:40.241Z,9.69
2023-01-01T20:54:07.316Z,9.65
2023-01-01T20:56:34.302Z,9.68
2023-01-01T20:59:24.360Z,9.78
2023-01-01T21:01:49.837Z,9.72
2023-01-01T21:04:17.844Z,9.64
2023-01-01T21:06:45.318Z,9.56
2023-01-01T21:09:12.269Z,9.62
2023-01-01T21:11:39.748Z,9.42
2023-01-01T21:14:06.743Z,9.35
2023-01-01T21:16:37.235Z,9.21
2023-01-01T21:19:09.187Z,8.89
2023-01-01T21:21:52.309Z,8.78
2023-01-01T21:24:29.548Z,8.71
2023-01-01T21:27:24.754Z,8.75
2023-01-01T21:29:55.348Z,8.84
2023-01-01T21:32:25.417Z,9.14
2023-01-01T21:34:54.190Z,9.52
2023-01-01T21:37:59.909Z,9.81
2023-01-01T21:40:52.476Z,9.88
2023-01-01T21:43:51.232Z,9.86
2023-01-01T21:46:37.668Z,9.88
2023-01-01T21:49:22.926Z,10.08
2023-01-01T21:51:58.818Z,10.05
2023-01-01T21:54:42.684Z,10.08
2023-01-01T21:57:23.904Z,9.95
2023-01-01T21:59:54.294Z,9.99
2023-01-01T22:02:34.144Z,10.08
2023-01-01T22:05:37.198Z,10.39
2023-01-01T22:08:24.383Z,10.34
2023-01-01T22:10:51.591Z,10.47
2023-01-01T22:13:19.776Z,10.50
2023-01-01T22:15:47.095Z,10.62
2023-01-01T22:18:28.225Z,10.44
2023-01-01T22:20:56.381Z,10.38
2023-01-01T22:23:41.541Z,10.50
2023-01-01T22:26:22.710Z,10.71
2023-01-01T22:28:57.147Z,10.76
2023-01-01T22:31:28.442Z,10.91
2023-01-01T22:34:00.233Z,10.87
2023-01-01T22:36:34.400Z,11.04
2023-01-01T22:39:04.702Z,11.06
2023-01-01T22:41:31.639Z,11.07
2023-01-01T22:44:04.206Z,11.06
2023-01-01T22:46:40.514Z,11.06
2023-01-01T22:49:24.479Z,10.99
2023-01-01T22:51:55.081Z,11.00
2023-01-01T22:54:22.182Z,11.00
2023-01-01T22:56:49.177Z,10.98
2023-01-01T22:59:16.168Z,10.96
2023-01-01T23:01:43.211Z,10.99
2023-01-01T23:04:10.158Z,11.00
2023-01-01T23:06:37.778Z,11.03
2023-01-01T23:09:05.451Z,11.08
2023-01-01T23:11:32.548Z,11.18
2023-01-01T23:14:38.786Z,11.13
2023-01-01T23:17:06.030Z,11.14
2023-01-01T23:19:33.183Z,11.05
2023-01-01T23:22:02.245Z,10.98
2023-01-01T23:24:30.444Z,10.95
2023-01-01T23:26:58.591Z,10.90
2023-01-01T23:29:31.192Z,10.86
2023-01-01T23:31:58.660Z,10.84
2023-01-01T23:34:25.995Z,10.72
2023-01-01T23:36:54.789Z,10.74
2023-01-01T23:39:22.164Z,10.67
2023-01-01T23:41:49.400Z,10.69
2023-01-01T23:44:16.348Z,10.72
2023-01-01T23:46:43.648Z,10.70
2023-01-01T23:49:11.677Z,10.56
2023-01-01T23:51:39.884Z,10.65
2023-01-01T23:54:07.321Z,10.77
2023-01-01T23:56:34.400Z,10.80
2023-01-01T23:59:01.465Z,10.89
